createdAt,value
2023-03-02T00:00:47.951Z,22.71
2023-03-02T00:01:47.948Z,22.76
2023-03-02T00:02:48.001Z,22.71
2023-03-02T00:03:47.968Z,22.78
2023-03-02T00:04:47.912Z,22.71
2023-03-02T00:05:47.869Z,22.71
2023-03-02T00:06:47.865Z,22.73
2023-03-02T00:07:47.881Z,22.78
2023-03-02T00:08:47.848Z,22.71
2023-03-02T00:09:47.844Z,22.68
2023-03-02T00:10:47.833Z,22.64
2023-03-02T00:11:47.822Z,22.59
2023-03-02T00:12:47.807Z,22.68
2023-03-02T00:13:47.773Z,22.78
2023-03-02T00:14:47.762Z,22.59
2023-03-02T00:15:47.797Z,22.61
2023-03-02T00:16:47.771Z,22.71
2023-03-02T00:17:47.753Z,22.76
2023-03-02T00:18:47.786Z,22.78
2023-03-02T00:19:47.721Z,22.73
2023-03-02T00:20:47.694Z,22.81
2023-03-02T00:21:47.691Z,22.76
2023-03-02T00:22:47.734Z,22.83
2023-03-02T00:23:47.644Z,22.86
2023-03-02T00:24:47.645Z,22.76
2023-03-02T00:25:47.661Z,22.86
2023-03-02T00:26:47.620Z,22.91
2023-03-02T00:27:47.615Z,22.76
2023-03-02T00:28:47.600Z,22.93
2023-03-02T00:29:47.585Z,22.91
2023-03-02T00:30:47.560Z,23.01
2023-03-02T00:31:47.656Z,23.03
2023-03-02T00:32:47.553Z,23.06
2023-03-02T00:33:47.523Z,23.16
2023-03-02T00:34:47.531Z,23.21
2023-03-02T00:35:47.541Z,23.24
2023-03-02T00:36:47.501Z,23.26
2023-03-02T00:37:47.466Z,23.26
2023-03-02T00:38:47.455Z,23.39
2023-03-02T00:39:47.467Z,23.29
2023-03-02T00:40:47.429Z,23.34
2023-03-02T00:41:47.430Z,23.34
2023-03-02T00:42:47.425Z,23.47
2023-03-02T00:43:47.408Z,23.45
2023-03-02T00:44:47.399Z,23.45
2023-03-02T00:45:47.378Z,23.50
2023-03-02T00:46:47.435Z,23.45
2023-03-02T00:47:47.350Z,23.52
2023-03-02T00:48:47.335Z,23.55
2023-03-02T00:49:47.323Z,23.58
2023-03-02T00:50:47.305Z,23.68
2023-03-02T00:51:47.327Z,23.74
2023-03-02T00:52:47.317Z,23.67
2023-03-02T00:53:47.273Z,23.64
2023-03-02T00:54:47.255Z,23.80
2023-03-02T00:55:47.235Z,23.67
2023-03-02T00:56:47.225Z,23.77
2023-03-02T00:57:47.229Z,23.74
2023-03-02T00:58:47.196Z,23.77
2023-03-02T00:59:47.192Z,23.82
2023-03-02T01:00:47.199Z,23.79
2023-03-02T01:01:47.176Z,23.86
2023-03-02T01:02:47.393Z,23.95
2023-03-02T01:03:47.140Z,23.99
2023-03-02T01:04:47.136Z,23.88
2023-03-02T01:05:47.119Z,23.97
2023-03-02T01:06:47.120Z,24.06
2023-03-02T01:07:47.112Z,24.02
2023-03-02T01:08:47.083Z,24.05
2023-03-02T01:09:47.070Z,24.13
2023-03-02T01:10:47.085Z,24.09
2023-03-02T01:11:47.049Z,24.10
2023-03-02T01:12:47.044Z,24.06
2023-03-02T01:13:47.018Z,24.27
2023-03-02T01:14:47.061Z,24.23
2023-03-02T01:15:47.094Z,24.22
2023-03-02T01:16:47.031Z,24.19
2023-03-02T01:17:47.062Z,24.20
2023-03-02T01:18:46.989Z,24.36
2023-03-02T01:19:47.093Z,24.24
2023-03-02T01:20:46.918Z,24.19
2023-03-02T01:21:47.008Z,24.10
2023-03-02T01:22:46.951Z,24.33
2023-03-02T01:23:46.897Z,24.28
2023-03-02T01:24:47.290Z,24.23
2023-03-02T01:25:46.883Z,24.22
2023-03-02T01:26:46.843Z,24.24
2023-03-02T01:27:46.876Z,24.22
2023-03-02T01:28:46.839Z,24.17
2023-03-02T01:29:46.844Z,24.19
2023-03-02T01:30:46.816Z,24.19
2023-03-02T01:31:46.839Z,24.23
2023-03-02T01:32:46.820Z,24.38
2023-03-02T01:33:46.772Z,24.37
2023-03-02T01:34:46.763Z,24.34
2023-03-02T01:35:46.873Z,24.43
2023-03-02T01:36:46.738Z,24.47
2023-03-02T01:37:46.723Z,24.48
2023-03-02T01:38:46.727Z,24.50
2023-03-02T01:39:46.709Z,24.66
2023-03-02T01:43:25.846Z,31.85
2023-03-02T01:44:11.019Z,30.29
2023-03-02T01:45:10.998Z,29.54
2023-03-02T01:46:11.031Z,29.09
2023-03-02T01:47:10.983Z,28.83
2023-03-02T01:48:10.965Z,28.46
2023-03-02T01:49:10.948Z,27.96
2023-03-02T01:50:10.948Z,27.94
2023-03-02T01:51:10.902Z,27.61
2023-03-02T01:52:10.897Z,27.59
2023-03-02T01:53:10.897Z,27.38
2023-03-02T01:54:10.890Z,27.40
2023-03-02T01:55:10.874Z,27.17
2023-03-02T01:56:10.877Z,27.06
2023-03-02T01:57:10.849Z,27.01
2023-03-02T01:58:10.840Z,26.94
2023-03-02T01:59:10.852Z,26.94
2023-03-02T02:00:10.813Z,26.70
2023-03-02T02:01:10.838Z,26.73
2023-03-02T02:02:10.806Z,26.50
2023-03-02T02:03:10.763Z,26.65
2023-03-02T02:04:10.922Z,26.38
2023-03-02T02:05:10.738Z,26.45
2023-03-02T02:06:10.719Z,26.30
2023-03-02T02:07:10.732Z,26.43
2023-03-02T02:08:10.719Z,26.36
2023-03-02T02:09:10.692Z,26.33
2023-03-02T02:10:10.688Z,26.36
2023-03-02T02:11:10.681Z,26.31
2023-03-02T02:12:10.661Z,26.38
2023-03-02T02:13:10.650Z,26.41
2023-03-02T02:14:10.636Z,26.30
2023-03-02T02:15:10.616Z,26.33
2023-03-02T02:16:10.648Z,26.36
2023-03-02T02:17:10.586Z,26.38
2023-03-02T02:18:10.590Z,26.45
2023-03-02T02:19:10.562Z,26.46
2023-03-02T02:20:10.552Z,26.40
2023-03-02T02:21:10.539Z,26.38
2023-03-02T02:22:10.522Z,26.41
2023-03-02T02:23:10.505Z,26.48
2023-03-02T02:24:10.504Z,26.60
2023-03-02T02:25:10.467Z,26.53
2023-03-02T02:26:10.497Z,26.61
2023-03-02T02:27:10.458Z,26.53
2023-03-02T02:28:10.437Z,26.58
2023-03-02T02:29:10.437Z,26.50
2023-03-02T02:30:10.438Z,26.58
2023-03-02T02:31:10.419Z,26.58
2023-03-02T02:32:10.636Z,26.68
2023-03-02T02:33:10.384Z,26.58
2023-03-02T02:34:10.366Z,26.63
2023-03-02T02:35:10.352Z,26.58
2023-03-02T02:36:10.349Z,26.80
2023-03-02T02:37:10.335Z,26.68
2023-03-02T02:38:10.351Z,26.58
2023-03-02T02:39:10.320Z,26.68
2023-03-02T02:40:10.312Z,26.61
2023-03-02T02:41:10.282Z,26.61
2023-03-02T02:42:10.277Z,26.75
2023-03-02T02:43:10.245Z,26.78
2023-03-02T02:44:10.247Z,26.63
2023-03-02T02:45:10.262Z,26.66
2023-03-02T02:46:10.214Z,26.78
2023-03-02T02:47:10.192Z,26.70
2023-03-02T02:48:10.172Z,26.65
2023-03-02T02:49:10.173Z,26.85
2023-03-02T02:50:10.150Z,26.66
2023-03-02T02:51:10.152Z,26.85
2023-03-02T02:52:10.151Z,26.75
2023-03-02T02:53:10.161Z,26.96
2023-03-02T02:54:10.129Z,26.96
2023-03-02T02:55:10.118Z,26.85
2023-03-02T02:56:10.109Z,26.89
2023-03-02T02:57:10.087Z,26.77
2023-03-02T02:58:10.161Z,26.90
2023-03-02T02:59:10.071Z,26.82
2023-03-02T03:00:10.044Z,26.73
2023-03-02T03:01:10.082Z,26.92
2023-03-02T03:02:10.011Z,26.75
2023-03-02T03:03:09.992Z,26.83
2023-03-02T03:04:10.047Z,26.72
2023-03-02T03:05:09.984Z,26.90
2023-03-02T03:06:09.990Z,26.66
2023-03-02T03:07:09.964Z,26.72
2023-03-02T03:08:09.940Z,26.82
2023-03-02T03:09:09.914Z,26.75
2023-03-02T03:10:09.913Z,26.89
2023-03-02T03:11:09.913Z,26.78
2023-03-02T03:12:09.901Z,26.92
2023-03-02T03:13:09.861Z,26.83
2023-03-02T03:14:09.862Z,26.82
2023-03-02T03:15:09.860Z,27.04
2023-03-02T03:16:09.849Z,26.96
2023-03-02T03:17:09.902Z,27.04
2023-03-02T03:18:09.865Z,26.94
2023-03-02T03:19:09.796Z,27.13
2023-03-02T03:20:09.788Z,26.99
2023-03-02T03:21:09.789Z,27.02
2023-03-02T03:22:09.769Z,27.09
2023-03-02T03:23:09.756Z,26.96
2023-03-02T03:24:09.737Z,27.15
2023-03-02T03:25:09.738Z,27.18
2023-03-02T03:26:09.701Z,27.20
2023-03-02T03:27:09.695Z,27.22
2023-03-02T03:28:09.691Z,27.11
2023-03-02T03:29:09.678Z,27.27
2023-03-02T03:30:09.634Z,27.24
2023-03-02T03:31:09.686Z,27.40
2023-03-02T03:32:09.639Z,27.27
2023-03-02T03:33:09.633Z,27.38
2023-03-02T03:34:09.627Z,27.49
2023-03-02T03:35:09.572Z,27.45
2023-03-02T03:36:09.584Z,27.59
2023-03-02T03:37:09.565Z,27.59
2023-03-02T03:38:09.581Z,27.50
2023-03-02T03:39:09.552Z,27.49
2023-03-02T03:40:09.514Z,27.70
2023-03-02T03:41:09.522Z,27.76
2023-03-02T03:42:09.481Z,27.67
2023-03-02T03:43:09.502Z,27.76
2023-03-02T03:44:09.469Z,27.69
2023-03-02T03:45:09.441Z,27.72
2023-03-02T03:46:09.511Z,27.74
2023-03-02T03:47:09.434Z,27.87
2023-03-02T03:48:09.402Z,27.87
2023-03-02T03:49:09.425Z,27.87
2023-03-02T03:50:09.394Z,27.80
2023-03-02T03:51:09.380Z,27.87
2023-03-02T03:52:09.355Z,27.83
2023-03-02T03:53:09.351Z,27.92
2023-03-02T03:54:09.364Z,27.91
2023-03-02T03:55:09.321Z,28.02
2023-03-02T03:56:09.326Z,28.04
2023-03-02T03:57:09.312Z,28.04
2023-03-02T03:58:09.333Z,28.02
2023-03-02T03:59:09.319Z,28.09
2023-03-02T04:00:09.277Z,28.11
2023-03-02T04:01:09.280Z,28.13
2023-03-02T04:02:09.225Z,28.08
2023-03-02T04:03:09.261Z,28.21
2023-03-02T04:04:09.195Z,28.11
2023-03-02T04:05:09.226Z,28.30
2023-03-02T04:06:09.189Z,28.19
2023-03-02T04:07:09.192Z,28.36
2023-03-02T04:08:09.140Z,28.30
2023-03-02T04:09:09.155Z,28.51
2023-03-02T04:10:09.169Z,28.57
2023-03-02T04:11:09.145Z,28.48
2023-03-02T04:12:09.099Z,28.36
2023-03-02T04:13:09.088Z,28.36
2023-03-02T04:14:09.069Z,28.48
2023-03-02T04:15:09.082Z,28.42
2023-03-02T04:16:09.109Z,28.44
2023-03-02T04:17:09.076Z,28.48
2023-03-02T04:18:09.035Z,28.53
2023-03-02T04:19:09.085Z,28.51
2023-03-02T04:20:09.008Z,28.67
2023-03-02T04:21:08.997Z,28.67
2023-03-02T04:22:09.011Z,28.75
2023-03-02T04:23:09.001Z,28.83
2023-03-02T04:24:08.970Z,28.81
2023-03-02T04:25:08.959Z,28.91
2023-03-02T04:26:08.976Z,28.83
2023-03-02T04:27:08.923Z,28.91
2023-03-02T04:28:08.920Z,28.91
2023-03-02T04:29:08.915Z,28.95
2023-03-02T04:30:08.886Z,29.05
2023-03-02T04:31:08.950Z,29.07
2023-03-02T04:32:08.940Z,29.11
2023-03-02T04:33:08.856Z,29.13
2023-03-02T04:34:08.833Z,29.15
2023-03-02T04:35:08.845Z,29.19
2023-03-02T04:36:08.816Z,29.23
2023-03-02T04:37:08.815Z,29.25
2023-03-02T04:38:08.803Z,29.23
2023-03-02T04:39:08.808Z,29.25
2023-03-02T04:40:08.823Z,29.25
2023-03-02T04:41:08.741Z,29.37
2023-03-02T04:42:08.746Z,29.31
2023-03-02T04:43:08.733Z,29.60
2023-03-02T04:44:08.720Z,29.39
2023-03-02T04:45:08.745Z,29.33
2023-03-02T04:46:08.701Z,29.44
2023-03-02T04:47:08.725Z,29.33
2023-03-02T04:48:08.652Z,29.50
2023-03-02T04:49:08.660Z,29.56
2023-03-02T04:50:08.656Z,29.37
2023-03-02T04:51:08.634Z,29.48
2023-03-02T04:52:08.636Z,29.54
2023-03-02T04:53:08.614Z,29.62
2023-03-02T04:54:08.594Z,29.54
2023-03-02T04:55:08.599Z,29.64
2023-03-02T04:56:08.549Z,29.44
2023-03-02T04:57:08.578Z,29.39
2023-03-02T04:58:08.542Z,29.50
2023-03-02T04:59:08.539Z,29.67
2023-03-02T05:00:08.519Z,29.62
2023-03-02T05:01:08.501Z,29.52
2023-03-02T05:02:08.488Z,29.56
2023-03-02T05:03:08.516Z,29.52
2023-03-02T05:04:08.528Z,29.60
2023-03-02T05:05:08.451Z,29.73
2023-03-02T05:06:08.453Z,29.71
2023-03-02T05:07:08.411Z,29.64
2023-03-02T05:08:08.431Z,29.67
2023-03-02T05:09:08.407Z,29.73
2023-03-02T05:10:08.378Z,29.71
2023-03-02T05:11:08.423Z,29.75
2023-03-02T05:12:08.364Z,29.69
2023-03-02T05:13:08.337Z,30.03
2023-03-02T05:14:08.341Z,29.88
2023-03-02T05:15:08.343Z,29.85
2023-03-02T05:16:12.343Z,29.77
2023-03-02T05:17:08.286Z,30.09
2023-03-02T05:18:08.283Z,29.83
2023-03-02T05:19:08.260Z,29.98
2023-03-02T05:20:08.296Z,30.05
2023-03-02T05:21:08.231Z,30.07
2023-03-02T05:22:08.251Z,30.07
2023-03-02T05:23:08.215Z,30.26
2023-03-02T05:24:08.226Z,30.16
2023-03-02T05:25:08.196Z,30.09
2023-03-02T05:26:08.193Z,30.11
2023-03-02T05:27:08.173Z,30.09
2023-03-02T05:28:08.154Z,30.24
2023-03-02T05:29:08.172Z,30.09
2023-03-02T05:30:08.143Z,30.07
2023-03-02T05:31:08.142Z,30.11
2023-03-02T05:32:08.202Z,30.26
2023-03-02T05:33:08.126Z,30.24
2023-03-02T05:34:08.083Z,30.16
2023-03-02T05:35:08.090Z,30.29
2023-03-02T05:36:08.066Z,30.55
2023-03-02T05:37:08.046Z,30.46
2023-03-02T05:38:08.019Z,30.57
2023-03-02T05:39:08.040Z,30.51
2023-03-02T05:40:08.016Z,30.57
2023-03-02T05:41:07.984Z,30.53
2023-03-02T05:42:07.990Z,30.78
2023-03-02T05:43:08.001Z,30.91
2023-03-02T05:44:07.949Z,30.71
2023-03-02T05:45:07.961Z,30.91
2023-03-02T05:46:07.926Z,30.78
2023-03-02T05:47:07.967Z,30.89
2023-03-02T05:48:07.948Z,30.96
2023-03-02T05:49:07.904Z,30.91
2023-03-02T05:50:07.931Z,31.07
2023-03-02T05:51:07.859Z,31.00
2023-03-02T05:52:07.836Z,30.98
2023-03-02T05:53:07.882Z,31.12
2023-03-02T05:54:07.825Z,30.96
2023-03-02T05:55:07.809Z,31.03
2023-03-02T05:56:07.837Z,31.09
2023-03-02T05:57:07.777Z,31.09
2023-03-02T05:58:07.781Z,31.05
2023-03-02T05:59:07.787Z,30.91
2023-03-02T06:00:07.780Z,30.91
2023-03-02T06:01:07.746Z,30.91
2023-03-02T06:02:07.750Z,30.98
2023-03-02T06:03:07.762Z,31.09
2023-03-02T06:04:07.682Z,30.89
2023-03-02T06:05:07.701Z,31.00
2023-03-02T06:06:07.677Z,31.00
2023-03-02T06:07:07.678Z,31.09
2023-03-02T06:08:07.675Z,30.93
2023-03-02T06:09:07.673Z,30.96
2023-03-02T06:10:07.623Z,30.93
2023-03-02T06:11:07.666Z,31.09
2023-03-02T06:12:07.601Z,31.09
2023-03-02T06:13:07.574Z,30.98
2023-03-02T06:14:07.561Z,31.09
2023-03-02T06:15:07.586Z,31.12
2023-03-02T06:16:07.564Z,31.05
2023-03-02T06:17:07.518Z,31.21
2023-03-02T06:18:07.530Z,31.00
2023-03-02T06:19:07.508Z,31.16
2023-03-02T06:20:07.478Z,31.09
2023-03-02T06:21:07.538Z,30.98
2023-03-02T06:22:07.483Z,30.87
2023-03-02T06:23:07.469Z,31.03
2023-03-02T06:24:07.445Z,30.91
2023-03-02T06:25:07.420Z,30.80
2023-03-02T06:26:07.433Z,30.87
2023-03-02T06:27:07.438Z,30.78
2023-03-02T06:28:07.373Z,30.78
2023-03-02T06:29:07.401Z,30.93
2023-03-02T06:30:07.396Z,30.75
2023-03-02T06:31:07.349Z,30.84
2023-03-02T06:32:07.448Z,30.68
2023-03-02T06:33:07.361Z,30.82
2023-03-02T06:34:07.336Z,30.64
2023-03-02T06:35:07.404Z,30.75
2023-03-02T06:36:07.418Z,30.66
2023-03-02T06:37:07.297Z,30.82
2023-03-02T06:38:07.263Z,30.60
2023-03-02T06:39:07.276Z,30.66
2023-03-02T06:40:07.257Z,30.64
2023-03-02T06:41:07.215Z,30.44
2023-03-02T06:42:07.194Z,30.66
2023-03-02T06:43:07.248Z,30.40
2023-03-02T06:44:07.292Z,30.51
2023-03-02T06:45:07.206Z,30.42
2023-03-02T06:46:07.197Z,30.49
2023-03-02T06:47:07.160Z,30.44
2023-03-02T06:48:07.147Z,30.42
2023-03-02T06:49:07.168Z,30.31
2023-03-02T06:50:07.136Z,30.29
2023-03-02T06:51:07.083Z,30.29
2023-03-02T06:52:07.117Z,30.22
2023-03-02T06:53:07.118Z,30.37
2023-03-02T06:54:07.071Z,30.20
2023-03-02T06:55:07.040Z,30.09
2023-03-02T06:56:07.037Z,30.22
2023-03-02T06:57:07.024Z,29.98
2023-03-02T06:58:07.026Z,30.22
2023-03-02T06:59:06.994Z,30.09
2023-03-02T07:00:07.000Z,30.00
2023-03-02T07:01:06.984Z,29.90
2023-03-02T07:02:06.985Z,29.96
2023-03-02T07:03:06.951Z,29.90
2023-03-02T07:04:07.024Z,29.88
2023-03-02T07:05:07.006Z,29.88
2023-03-02T07:06:06.900Z,29.77
2023-03-02T07:07:06.939Z,29.73
2023-03-02T07:08:06.922Z,29.58
2023-03-02T07:09:06.884Z,29.42
2023-03-02T07:10:06.857Z,29.71
2023-03-02T07:11:06.862Z,29.44
2023-03-02T07:12:06.877Z,29.39
2023-03-02T07:13:09.015Z,29.42
2023-03-02T07:14:06.867Z,29.50
2023-03-02T07:15:06.821Z,29.35
2023-03-02T07:16:06.786Z,29.39
2023-03-02T07:17:07.189Z,29.33
2023-03-02T07:18:06.772Z,29.35
2023-03-02T07:19:06.739Z,29.33
2023-03-02T07:20:06.760Z,29.29
2023-03-02T07:21:06.778Z,29.29
2023-03-02T07:22:06.701Z,29.25
2023-03-02T07:23:06.706Z,29.11
2023-03-02T07:24:06.708Z,29.19
2023-03-02T07:25:06.668Z,29.11
2023-03-02T07:26:06.656Z,29.17
2023-03-02T07:27:06.659Z,29.03
2023-03-02T07:28:06.648Z,29.11
2023-03-02T07:29:06.619Z,29.15
2023-03-02T07:30:06.603Z,29.05
2023-03-02T07:31:06.637Z,29.23
2023-03-02T07:32:06.686Z,29.21
2023-03-02T07:33:06.579Z,29.27
2023-03-02T07:34:06.554Z,28.99
2023-03-02T07:35:06.570Z,29.25
2023-03-02T07:36:06.530Z,29.07
2023-03-02T07:37:06.517Z,28.99
2023-03-02T07:38:06.491Z,28.89
2023-03-02T07:39:06.467Z,28.91
2023-03-02T07:40:06.485Z,28.89
2023-03-02T07:41:06.466Z,29.17
2023-03-02T07:42:06.469Z,28.93
2023-03-02T07:43:06.484Z,28.99
2023-03-02T07:44:06.459Z,28.91
2023-03-02T07:45:06.448Z,28.97
2023-03-02T07:46:06.452Z,28.93
2023-03-02T07:47:06.389Z,28.77
2023-03-02T07:48:06.444Z,28.93
2023-03-02T07:49:06.357Z,28.97
2023-03-02T07:50:06.527Z,29.05
2023-03-02T07:51:06.364Z,28.85
2023-03-02T07:52:06.424Z,28.91
2023-03-02T07:53:06.428Z,28.87
2023-03-02T07:54:06.282Z,28.95
2023-03-02T07:55:06.530Z,28.97
2023-03-02T07:56:06.371Z,28.97
2023-03-02T07:57:06.269Z,29.17
2023-03-02T07:58:06.404Z,29.25
2023-03-02T07:59:06.266Z,29.23
2023-03-02T08:00:06.211Z,29.42
2023-03-02T08:01:06.232Z,29.42
2023-03-02T08:02:06.407Z,29.52
2023-03-02T08:03:06.224Z,29.42
2023-03-02T08:04:06.268Z,29.54
2023-03-02T08:05:06.325Z,29.69
2023-03-02T08:06:06.223Z,29.67
2023-03-02T08:07:06.194Z,29.75
2023-03-02T08:08:06.172Z,29.79
2023-03-02T08:09:06.188Z,29.96
2023-03-02T08:10:06.177Z,29.92
2023-03-02T08:11:06.137Z,29.96
2023-03-02T08:12:06.179Z,30.09
2023-03-02T08:13:06.145Z,29.83
2023-03-02T08:14:06.205Z,29.88
2023-03-02T08:15:06.081Z,30.00
2023-03-02T08:16:06.095Z,30.22
2023-03-02T08:17:06.011Z,30.24
2023-03-02T08:18:06.039Z,30.16
2023-03-02T08:19:05.984Z,30.18
2023-03-02T08:20:05.990Z,30.13
2023-03-02T08:21:06.026Z,30.20
2023-03-02T08:22:05.981Z,30.37
2023-03-02T08:23:05.942Z,30.22
2023-03-02T08:24:05.929Z,30.29
2023-03-02T08:25:05.917Z,30.33
2023-03-02T08:26:05.893Z,30.37
2023-03-02T08:27:05.921Z,30.26
2023-03-02T08:28:05.866Z,30.40
2023-03-02T08:29:05.849Z,30.62
2023-03-02T08:30:05.850Z,30.68
2023-03-02T08:31:05.845Z,30.51
2023-03-02T08:32:06.004Z,30.66
2023-03-02T08:33:07.213Z,30.68
2023-03-02T08:34:05.824Z,30.60
2023-03-02T08:35:05.914Z,30.57
2023-03-02T08:36:05.826Z,30.68
2023-03-02T08:37:05.778Z,30.71
2023-03-02T08:38:05.771Z,30.62
2023-03-02T08:39:05.722Z,30.49
2023-03-02T08:40:05.764Z,30.51
2023-03-02T08:41:05.764Z,30.55
2023-03-02T08:42:05.721Z,30.57
2023-03-02T08:43:08.021Z,30.66
2023-03-02T08:44:05.694Z,30.60
2023-03-02T08:45:05.653Z,30.57
2023-03-02T08:46:05.673Z,30.78
2023-03-02T08:47:05.612Z,30.96
2023-03-02T08:48:05.598Z,30.89
2023-03-02T08:49:05.621Z,31.21
2023-03-02T08:50:05.633Z,31.26
2023-03-02T08:51:05.592Z,31.42
2023-03-02T08:52:05.572Z,31.40
2023-03-02T08:53:05.577Z,31.23
2023-03-02T08:54:05.583Z,31.42
2023-03-02T08:55:05.561Z,31.35
2023-03-02T08:56:05.487Z,31.33
2023-03-02T08:57:05.510Z,31.44
2023-03-02T08:58:05.506Z,31.66
2023-03-02T08:59:05.456Z,31.80
2023-03-02T09:00:05.493Z,31.85
2023-03-02T09:01:05.586Z,32.07
2023-03-02T09:02:05.476Z,32.10
2023-03-02T09:03:05.503Z,32.24
2023-03-02T09:04:05.455Z,32.27
2023-03-02T09:05:05.442Z,32.19
2023-03-02T09:06:05.394Z,32.22
2023-03-02T09:07:05.375Z,32.27
2023-03-02T09:08:05.365Z,32.39
2023-03-02T09:09:05.375Z,32.27
2023-03-02T09:10:05.388Z,32.42
2023-03-02T09:11:05.311Z,32.49
2023-03-02T09:12:05.509Z,32.82
2023-03-02T09:13:08.075Z,32.75
2023-03-02T09:14:05.287Z,32.93
2023-03-02T09:15:05.261Z,33.01
2023-03-02T09:16:05.253Z,33.19
2023-03-02T09:17:05.245Z,33.08
2023-03-02T09:18:05.184Z,33.27
2023-03-02T09:19:05.176Z,33.32
2023-03-02T09:20:05.181Z,33.16
2023-03-02T09:21:05.242Z,33.35
2023-03-02T09:22:05.176Z,33.08
2023-03-02T09:23:05.144Z,33.08
2023-03-02T09:24:05.183Z,33.29
2023-03-02T09:25:05.119Z,33.35
2023-03-02T09:26:05.135Z,33.35
2023-03-02T09:27:05.088Z,33.35
2023-03-02T09:28:05.060Z,33.48
2023-03-02T09:29:05.054Z,33.80
2023-03-02T09:30:05.074Z,33.78
2023-03-02T09:31:05.038Z,33.72
2023-03-02T09:32:05.214Z,33.61
2023-03-02T09:33:05.039Z,34.02
2023-03-02T09:34:05.019Z,34.41
2023-03-02T09:35:04.995Z,34.56
2023-03-02T09:36:04.974Z,34.81
2023-03-02T09:37:04.982Z,35.13
2023-03-02T09:38:05.030Z,35.13
2023-03-02T09:39:04.946Z,35.64
2023-03-02T09:40:04.924Z,35.67
2023-03-02T09:41:04.911Z,35.61
2023-03-02T09:42:04.913Z,35.89
2023-03-02T09:43:04.934Z,36.01
2023-03-02T09:44:04.910Z,36.23
2023-03-02T09:45:04.826Z,36.54
2023-03-02T09:46:04.893Z,36.26
2023-03-02T09:47:04.847Z,36.20
2023-03-02T09:48:04.824Z,36.01
2023-03-02T09:49:04.810Z,35.92
2023-03-02T09:50:04.813Z,35.61
2023-03-02T09:51:04.780Z,35.02
2023-03-02T09:52:04.804Z,34.93
2023-03-02T09:53:04.762Z,34.96
2023-03-02T09:54:04.777Z,34.76
2023-03-02T09:55:05.137Z,34.58
2023-03-02T09:56:04.789Z,34.30
2023-03-02T09:57:04.695Z,34.24
2023-03-02T09:58:04.667Z,34.19
2023-03-02T09:59:04.658Z,34.22
2023-03-02T10:00:18.167Z,34.44
2023-03-02T10:01:04.628Z,34.90
2023-03-02T10:02:04.648Z,35.19
2023-03-02T10:03:16.276Z,35.43
2023-03-02T10:04:04.777Z,35.61
2023-03-02T10:05:04.585Z,35.92
2023-03-02T10:06:04.564Z,36.96
2023-03-02T10:07:04.561Z,37.69
2023-03-02T10:08:04.526Z,38.70
2023-03-02T10:09:04.653Z,38.99
2023-03-02T10:10:04.504Z,39.84
2023-03-02T10:11:04.548Z,39.84
2023-03-02T10:12:04.529Z,39.88
2023-03-02T10:13:04.477Z,39.43
2023-03-02T10:14:04.456Z,39.36
2023-03-02T10:15:04.466Z,39.25
2023-03-02T10:16:04.482Z,39.10
2023-03-02T10:17:04.424Z,39.17
2023-03-02T10:18:04.465Z,39.03
2023-03-02T10:19:05.426Z,38.88
2023-03-02T10:20:04.388Z,39.14
2023-03-02T10:21:04.416Z,39.17
2023-03-02T10:22:04.517Z,39.10
2023-03-02T10:23:04.389Z,38.88
2023-03-02T10:24:04.385Z,39.03
2023-03-02T10:25:04.310Z,38.85
2023-03-02T10:26:04.318Z,39.10
2023-03-02T10:27:04.277Z,39.14
2023-03-02T10:28:04.281Z,39.81
2023-03-02T10:29:04.240Z,40.27
2023-03-02T10:30:04.258Z,41.50
2023-03-02T10:31:05.390Z,42.51
2023-03-02T10:32:04.331Z,43.75
2023-03-02T10:33:04.220Z,45.96
2023-03-02T10:34:04.204Z,48.43
2023-03-02T10:35:04.208Z,50.81
2023-03-02T10:36:04.155Z,53.44
2023-03-02T10:37:04.189Z,57.04
2023-03-02T10:38:04.154Z,60.68
2023-03-02T10:39:04.164Z,64.66
2023-03-02T10:40:04.127Z,67.15
2023-03-02T10:41:04.089Z,68.02
2023-03-02T10:42:04.182Z,67.85
2023-03-02T10:43:04.099Z,68.80
2023-03-02T10:44:04.090Z,68.52
2023-03-02T10:45:04.073Z,69.26
2023-03-02T10:46:04.090Z,70.07
2023-03-02T10:47:04.054Z,70.24
2023-03-02T10:48:04.031Z,71.14
2023-03-02T10:49:04.026Z,73.38
2023-03-02T10:50:04.016Z,76.96
2023-03-02T10:51:03.970Z,80.35
2023-03-02T10:52:03.967Z,82.57
2023-03-02T10:53:05.290Z,84.32
2023-03-02T10:54:03.946Z,86.32
2023-03-02T10:55:03.934Z,88.88
2023-03-02T10:56:03.891Z,90.22
2023-03-02T10:57:03.877Z,92.72
2023-03-02T10:58:03.892Z,94.39
2023-03-02T10:59:03.854Z,95.99
2023-03-02T11:00:03.880Z,97.21
2023-03-02T11:01:03.849Z,99.58
2023-03-02T11:02:03.818Z,102.13
2023-03-02T11:03:03.806Z,105.35
2023-03-02T11:04:03.832Z,108.98
2023-03-02T11:05:03.866Z,111.59
2023-03-02T11:06:03.782Z,112.49
2023-03-02T11:07:03.786Z,111.52
2023-03-02T11:08:03.740Z,111.07
2023-03-02T11:09:03.764Z,112.57
2023-03-02T11:10:03.731Z,114.49
2023-03-02T11:11:03.720Z,115.36
2023-03-02T11:12:03.792Z,118.12
2023-03-02T11:13:03.712Z,119.39
2023-03-02T11:14:03.646Z,119.39
2023-03-02T11:15:03.668Z,118.88
2023-03-02T11:16:03.730Z,119.39
2023-03-02T11:17:03.664Z,116.89
2023-03-02T11:18:03.618Z,114.73
2023-03-02T11:19:03.616Z,113.33
2023-03-02T11:20:03.591Z,109.98
2023-03-02T11:21:03.617Z,108.34
2023-03-02T11:22:03.568Z,106.28
2023-03-02T11:23:03.549Z,107.03
2023-03-02T11:24:03.535Z,107.44
2023-03-02T11:25:03.535Z,109.55
2023-03-02T11:26:03.495Z,111.67
2023-03-02T11:27:03.516Z,113.87
2023-03-02T11:28:03.469Z,115.28
2023-03-02T11:29:03.447Z,117.13
2023-03-02T11:30:03.449Z,119.99
2023-03-02T11:31:03.429Z,122.35
2023-03-02T11:32:03.494Z,126.61
2023-03-02T11:33:03.456Z,133.68
2023-03-02T11:34:11.538Z,137.75
2023-03-02T11:35:03.401Z,141.59
2023-03-02T11:36:03.381Z,145.02
2023-03-02T11:37:03.404Z,150.63
2023-03-02T11:38:03.344Z,156.54
2023-03-02T11:39:03.341Z,159.37
2023-03-02T11:40:03.325Z,162.31
2023-03-02T11:41:03.320Z,164.54
2023-03-02T11:42:03.329Z,168.51
2023-03-02T11:43:03.285Z,168.68
2023-03-02T11:44:03.242Z,171.44
2023-03-02T11:45:03.274Z,170.92
2023-03-02T11:46:06.694Z,174.66
2023-03-02T11:47:03.265Z,177.62
2023-03-02T11:48:04.014Z,186.11
2023-03-02T11:49:03.206Z,190.42
2023-03-02T11:50:03.204Z,191.86
2023-03-02T11:51:03.168Z,197.50
2023-03-02T11:52:03.157Z,203.85
2023-03-02T11:53:03.130Z,206.02
2023-03-02T11:54:03.201Z,208.90
2023-03-02T11:55:03.136Z,214.61
2023-03-02T11:56:03.131Z,217.45
2023-03-02T11:57:03.100Z,220.95
2023-03-02T11:58:03.278Z,223.35
2023-03-02T11:59:03.078Z,221.69
2023-03-02T12:00:03.052Z,220.65
2023-03-02T12:01:03.078Z,222.44
2023-03-02T12:02:03.072Z,225.95
2023-03-02T12:03:03.005Z,226.10
2023-03-02T12:04:03.007Z,228.93
2023-03-02T12:05:02.989Z,232.98
2023-03-02T12:06:05.202Z,236.16
2023-03-02T12:07:02.979Z,236.50
2023-03-02T12:08:02.945Z,234.98
2023-03-02T12:09:02.974Z,235.82
2023-03-02T12:10:02.906Z,238.38
2023-03-02T12:11:02.904Z,240.64
2023-03-02T12:12:04.831Z,249.77
2023-03-02T12:13:02.871Z,252.45
2023-03-02T12:14:02.865Z,253.62
2023-03-02T12:15:02.854Z,252.45
2023-03-02T12:16:02.842Z,248.45
2023-03-02T12:17:02.827Z,246.59
2023-03-02T12:18:02.824Z,244.21
2023-03-02T12:19:02.790Z,242.41
2023-03-02T12:20:02.788Z,244.21
2023-03-02T12:21:02.767Z,242.77
2023-03-02T12:22:02.755Z,241.17
2023-03-02T12:23:02.746Z,242.77
2023-03-02T12:24:02.717Z,242.59
2023-03-02T12:25:02.720Z,240.64
2023-03-02T12:26:02.665Z,242.06
2023-03-02T12:27:02.715Z,244.21
2023-03-02T12:28:02.703Z,247.70
2023-03-02T12:29:02.658Z,251.10
2023-03-02T12:30:02.671Z,255.38
2023-03-02T12:31:02.637Z,258.59
2023-03-02T12:32:02.795Z,262.93
2023-03-02T12:33:02.580Z,269.38
2023-03-02T12:34:02.573Z,270.04
2023-03-02T12:35:02.586Z,270.93
2023-03-02T12:36:02.550Z,272.05
2023-03-02T12:37:02.568Z,271.60
2023-03-02T12:38:02.604Z,271.15
2023-03-02T12:39:02.499Z,274.32
2023-03-02T12:40:03.274Z,275.23
2023-03-02T12:41:02.530Z,277.32
2023-03-02T12:42:02.502Z,278.96
2023-03-02T12:43:02.505Z,279.67
2023-03-02T12:44:02.484Z,276.39
2023-03-02T12:45:02.479Z,274.32
2023-03-02T12:46:02.520Z,276.62
2023-03-02T12:47:04.039Z,273.40
2023-03-02T12:48:02.848Z,275.46
2023-03-02T12:49:02.888Z,273.18
2023-03-02T12:50:02.366Z,269.60
2023-03-02T12:51:02.447Z,278.26
2023-03-02T12:52:02.511Z,282.07